Time;durP1;ratioP1;P1;durP2;ratioP2;P2;SDS_P1;SDS_P2;PMS_P1;PMS_P2;Temp;Humidity;BMP_temperature;BMP_pressure;BME280_temperature;BME280_humidity;BME280_pressure;Samples;Min_cycle;Max_cycle;Signal;HPM_P1;HPM_P2
2024/03/12 00:00:59;;;;;;;10.10;6.20;;;;;;;0.69;100.00;97872.69;6099860;19;20402;-71
2024/03/12 00:02:59;;;;;;;10.27;6.20;;;;;;;0.71;100.00;97879.41;6096720;19;20007;-70
2024/03/12 00:05:07;;;;;;;8.50;5.57;;;;;;;0.67;100.00;97872.25;6098751;19;20009;-70
2024/03/12 00:07:08;;;;;;;8.90;5.38;;;;;;;0.73;100.00;97877.16;6098694;19;20964;-70
2024/03/12 00:09:09;;;;;;;10.70;5.82;;;;;;;0.71;100.00;97881.34;6098020;19;20386;-71
2024/03/12 00:11:09;;;;;;;9.32;5.25;;;;;;;0.73;100.00;97879.06;6098516;19;19998;-71
2024/03/12 00:13:10;;;;;;;11.45;6.15;;;;;;;0.76;100.00;97876.50;6094965;19;20018;-71
2024/03/12 00:15:10;;;;;;;8.60;5.07;;;;;;;0.74;100.00;97880.66;6106252;19;20013;-70
2024/03/12 00:17:11;;;;;;;11.02;5.30;;;;;;;0.70;100.00;97880.53;6106416;19;20079;-71
2024/03/12 00:19:11;;;;;;;9.32;5.93;;;;;;;0.75;100.00;97893.19;6104822;19;20013;-71
2024/03/12 00:21:12;;;;;;;7.95;5.00;;;;;;;0.81;100.00;97894.56;6106603;19;20021;-70
2024/03/12 00:23:12;;;;;;;7.13;5.18;;;;;;;0.78;100.00;97890.59;6103909;19;20607;-71
2024/03/12 00:25:19;;;;;;;5.95;4.53;;;;;;;0.72;100.00;97891.09;6105900;19;20003;-70
2024/03/12 00:27:19;;;;;;;7.72;4.82;;;;;;;0.61;100.00;97906.22;6105698;19;20003;-70
2024/03/12 00:29:19;;;;;;;7.90;4.88;;;;;;;0.54;100.00;97896.63;6105749;19;20024;-70
2024/03/12 00:31:20;;;;;;;7.93;4.15;;;;;;;0.46;100.00;97897.44;6105652;19;20384;-71
2024/03/12 00:33:21;;;;;;;7.55;4.93;;;;;;;0.37;100.00;97899.41;6105657;19;20470;-71
2024/03/12 00:35:24;;;;;;;7.47;4.50;;;;;;;0.39;100.00;97894.44;6105843;19;20109;-71
2024/03/12 00:37:25;;;;;;;5.38;4.20;;;;;;;0.49;100.00;97894.06;6111909;19;20006;-71
2024/03/12 00:39:25;;;;;;;7.32;4.57;;;;;;;0.45;100.00;97900.50;6111143;19;20481;-71
2024/03/12 00:41:25;;;;;;;7.30;4.03;;;;;;;0.52;100.00;97906.25;6110006;19;20336;-70
2024/03/12 00:43:26;;;;;;;7.82;5.10;;;;;;;0.51;100.00;97910.09;6110747;19;20487;-70
2024/03/12 00:45:29;;;;;;;6.20;4.32;;;;;;;0.48;100.00;97908.00;6111618;19;20007;-70
2024/03/12 00:47:29;;;;;;;6.65;4.93;;;;;;;0.47;100.00;97911.84;6111898;19;20216;-71
2024/03/12 00:49:30;;;;;;;8.80;4.57;;;;;;;0.43;100.00;97909.00;6112153;19;20077;-71
2024/03/12 00:51:31;;;;;;;7.82;4.93;;;;;;;0.43;100.00;97919.88;6109448;19;20483;-71
2024/03/12 00:53:31;;;;;;;6.82;4.43;;;;;;;0.37;100.00;97918.44;6109745;19;20011;-71
2024/03/12 00:55:32;;;;;;;7.38;4.72;;;;;;;0.31;100.00;97917.03;6111227;19;20416;-71
2024/03/12 00:57:34;;;;;;;7.82;4.70;;;;;;;0.29;100.00;97924.72;6111242;19;20066;-71
2024/03/12 00:59:34;;;;;;;6.63;4.30;;;;;;;0.28;100.00;97914.97;6110544;19;20447;-70
2024/03/12 01:01:34;;;;;;;6.32;4.78;;;;;;;0.21;100.00;97925.53;6110554;19;20366;-70
2024/03/12 01:03:35;;;;;;;6.22;4.10;;;;;;;0.25;100.00;97921.06;6110548;19;20416;-71
2024/03/12 01:05:38;;;;;;;7.18;4.43;;;;;;;0.26;100.00;97919.94;6109950;19;20070;-71
2024/03/12 01:07:38;;;;;;;6.00;3.88;;;;;;;0.27;100.00;97914.16;6110176;19;20377;-70
2024/03/12 01:09:41;;;;;;;8.18;4.57;;;;;;;0.28;100.00;97923.13;6111383;19;20014;-70
2024/03/12 01:11:42;;;;;;;8.07;4.50;;;;;;;0.34;100.00;97927.28;6109436;19;20003;-71
2024/03/12 01:13:44;;;;;;;6.85;4.60;;;;;;;0.39;100.00;97924.38;6109727;19;20009;-71
2024/03/12 01:15:45;;;;;;;6.47;4.32;;;;;;;0.49;100.00;97923.19;6110403;19;20390;-71
2024/03/12 01:17:47;;;;;;;6.53;4.25;;;;;;;0.46;100.00;97921.94;6111620;19;20007;-71
2024/03/12 01:19:48;;;;;;;7.97;4.55;;;;;;;0.49;100.00;97920.47;6110529;19;20002;-71
2024/03/12 01:21:51;;;;;;;7.38;4.60;;;;;;;0.47;100.00;97920.00;6108511;19;20009;-71
2024/03/12 01:23:51;;;;;;;5.88;4.28;;;;;;;0.45;100.00;97905.94;6109662;19;20346;-70
2024/03/12 01:25:52;;;;;;;7.35;4.82;;;;;;;0.47;100.00;97906.41;6110564;19;20030;-70
2024/03/12 01:27:55;;;;;;;6.95;4.40;;;;;;;0.47;100.00;97898.25;6109325;19;20242;-70
2024/03/12 01:29:57;;;;;;;9.10;4.63;;;;;;;0.42;100.00;97901.16;6110348;19;20003;-70
2024/03/12 01:31:57;;;;;;;5.70;4.07;;;;;;;0.43;100.00;97897.31;6108761;19;20054;-70
2024/03/12 01:33:57;;;;;;;7.25;4.75;;;;;;;0.39;100.00;97899.88;6111494;19;21195;-71
2024/03/12 01:36:05;;;;;;;6.25;4.25;;;;;;;0.35;100.00;97901.66;6108673;19;20418;-70
2024/03/12 01:38:05;;;;;;;6.53;4.82;;;;;;;0.23;100.00;97894.16;6109803;19;19998;-71
2024/03/12 01:40:19;;;;;;;9.73;4.38;;;;;;;0.16;100.00;97906.66;6109012;19;20035;-71
2024/03/12 01:42:21;;;;;;;6.90;4.80;;;;;;;0.14;100.00;97904.25;6108288;19;20010;-71
2024/03/12 01:44:21;;;;;;;6.57;4.15;;;;;;;0.11;100.00;97898.69;6110539;19;20034;-71
2024/03/12 01:46:22;;;;;;;6.90;4.43;;;;;;;0.09;100.00;97906.38;6107175;19;20016;-70
2024/03/12 01:48:23;;;;;;;5.72;4.28;;;;;;;0.07;100.00;97901.22;6109061;19;20342;-70
2024/03/12 01:50:26;;;;;;;6.32;4.40;;;;;;;0.09;100.00;97906.38;6108555;19;20456;-70
2024/03/12 01:52:26;;;;;;;7.18;4.70;;;;;;;0.13;100.00;97905.38;6109434;19;20005;-70
2024/03/12 01:54:26;;;;;;;8.30;4.55;;;;;;;0.11;100.00;97915.78;6108956;19;20010;-70
2024/03/12 01:56:27;;;;;;;7.20;5.53;;;;;;;0.01;100.00;97913.41;6110077;19;20062;-70
2024/03/12 01:58:27;;;;;;;8.27;4.32;;;;;;;-0.02;100.00;97916.78;6108827;19;20014;-70
2024/03/12 02:00:29;;;;;;;6.75;4.50;;;;;;;-0.07;100.00;97912.31;6109192;19;20006;-70
2024/03/12 02:02:29;;;;;;;7.50;4.78;;;;;;;-0.06;100.00;97911.19;6108427;19;20027;-71
2024/03/12 02:04:29;;;;;;;8.43;4.70;;;;;;;-0.12;100.00;97920.63;6109216;19;20417;-70
2024/03/12 02:06:30;;;;;;;6.88;4.60;;;;;;;-0.18;100.00;97930.06;6110289;19;20561;-70
2024/03/12 02:08:32;;;;;;;7.90;4.65;;;;;;;-0.24;100.00;97928.66;6110693;19;20006;-70
2024/03/12 02:10:32;;;;;;;6.65;4.30;;;;;;;-0.21;100.00;97933.44;6109780;19;20002;-70
2024/03/12 02:12:33;;;;;;;7.38;4.78;;;;;;;-0.24;100.00;97939.53;6108076;19;20009;-70
2024/03/12 02:14:35;;;;;;;5.75;4.28;;;;;;;-0.29;100.00;97936.94;6110112;19;20013;-70
2024/03/12 02:16:38;;;;;;;9.27;4.57;;;;;;;-0.35;100.00;97938.22;6110607;19;20018;-70
2024/03/12 02:18:39;;;;;;;5.88;4.05;;;;;;;-0.38;100.00;97939.66;6110170;19;20365;-70
2024/03/12 02:20:39;;;;;;;6.38;4.63;;;;;;;-0.37;100.00;97933.09;6109243;19;20010;-70
2024/03/12 02:22:40;;;;;;;7.82;4.95;;;;;;;-0.36;100.00;97936.63;6107970;19;20522;-70
2024/03/12 02:24:40;;;;;;;5.25;4.05;;;;;;;-0.43;100.00;97933.59;6109446;19;20511;-70
2024/03/12 02:26:41;;;;;;;7.53;4.90;;;;;;;-0.44;100.00;97940.13;6107820;19;20011;-71
2024/03/12 02:28:43;;;;;;;6.57;4.32;;;;;;;-0.53;100.00;97933.91;6110099;19;20013;-70
2024/03/12 02:30:43;;;;;;;;;;;;;;;-0.54;100.00;97941.25;6110081;19;20095;-70
2024/03/12 02:32:46;;;;;;;7.93;5.15;;;;;;;-0.68;100.00;97944.09;6108671;19;19911;-70
2024/03/12 02:34:49;;;;;;;8.25;5.50;;;;;;;-0.64;100.00;97942.38;6107933;19;20026;-70
2024/03/12 02:36:49;;;;;;;11.48;5.60;;;;;;;-0.65;100.00;97937.25;6109510;19;20039;-70
2024/03/12 02:38:49;;;;;;;8.50;5.65;;;;;;;-0.63;100.00;97937.72;6109199;19;20470;-70
2024/03/12 02:40:50;;;;;;;8.55;5.47;;;;;;;-0.68;100.00;97948.75;6109730;19;20450;-70
2024/03/12 02:42:50;;;;;;;9.18;6.03;;;;;;;-0.74;100.00;97941.88;6107123;19;20017;-70
2024/03/12 02:44:50;;;;;;;9.43;5.50;;;;;;;-0.72;100.00;97945.06;6109500;19;20395;-70
2024/03/12 02:46:52;;;;;;;8.55;5.65;;;;;;;-0.73;100.00;97944.28;6106862;19;20019;-70
2024/03/12 02:48:52;;;;;;;13.00;6.25;;;;;;;-0.71;100.00;97946.66;6109039;19;20451;-70
2024/03/12 02:50:53;;;;;;;10.15;5.82;;;;;;;-0.66;100.00;97943.81;6108335;19;20002;-70
2024/03/12 02:52:55;;;;;;;11.05;5.63;;;;;;;-0.73;100.00;97949.72;6107785;19;19999;-70
2024/03/12 02:54:55;;;;;;;9.55;5.47;;;;;;;-0.78;100.00;97951.75;6108624;19;20451;-70
2024/03/12 02:56:56;;;;;;;10.23;5.55;;;;;;;-0.78;100.00;97955.28;6108930;19;20004;-70
2024/03/12 02:58:56;;;;;;;14.13;5.93;;;;;;;-0.78;100.00;97952.56;6105166;19;20388;-70
2024/03/12 03:00:56;;;;;;;12.73;5.85;;;;;;;-0.77;100.00;97948.72;6109033;19;19999;-70
2024/03/12 03:02:57;;;;;;;8.75;5.65;;;;;;;-0.79;100.00;97950.16;6106569;19;20435;-70
2024/03/12 03:04:57;;;;;;;11.57;4.72;;;;;;;-0.78;100.00;97958.00;6108490;19;20327;-70
2024/03/12 03:07:00;;;;;;;9.65;5.65;;;;;;;-0.85;100.00;97954.94;6109039;19;20703;-70
2024/03/12 03:09:00;;;;;;;8.48;5.35;;;;;;;-0.82;100.00;97948.91;6108344;19;19999;-70
2024/03/12 03:11:01;;;;;;;9.25;5.88;;;;;;;-0.93;100.00;97953.00;6108430;19;21097;-70
2024/03/12 03:13:01;;;;;;;9.25;6.15;;;;;;;-0.87;100.00;97959.91;6106362;19;20016;-70
2024/03/12 03:15:01;;;;;;;10.05;6.07;;;;;;;-0.98;100.00;97959.41;6098727;19;20399;-70
2024/03/12 03:17:02;;;;;;;10.70;6.63;;;;;;;-1.04;100.00;97955.22;6108060;19;20002;-70
2024/03/12 03:19:02;;;;;;;9.25;5.95;;;;;;;-1.08;100.00;97962.38;6107539;19;19998;-70
2024/03/12 03:21:03;;;;;;;10.63;6.25;;;;;;;-1.08;100.00;97956.94;6108423;19;20006;-70
2024/03/12 03:23:04;;;;;;;10.02;5.90;;;;;;;-1.11;100.00;97960.28;6105545;19;20066;-70
2024/03/12 03:25:05;;;;;;;14.20;7.55;;;;;;;-1.13;100.00;97965.25;6106554;19;20366;-70
2024/03/12 03:27:07;;;;;;;14.55;7.97;;;;;;;-1.07;100.00;97964.00;6108187;19;20401;-70
2024/03/12 03:29:07;;;;;;;10.15;6.57;;;;;;;-1.01;100.00;97967.34;6107982;19;20006;-70
2024/03/12 03:31:10;;;;;;;12.18;7.10;;;;;;;-1.11;100.00;97962.22;6107634;19;20463;-70
2024/03/12 03:33:11;;;;;;;12.43;6.80;;;;;;;-1.18;100.00;97965.38;6104765;19;20006;-70
2024/03/12 03:35:13;;;;;;;10.93;6.47;;;;;;;-1.21;100.00;97961.38;6107086;19;20010;-70
2024/03/12 03:37:13;;;;;;;10.05;7.00;;;;;;;-1.19;100.00;97964.56;6107830;19;19998;-70
2024/03/12 03:39:15;;;;;;;10.93;6.60;;;;;;;-1.24;100.00;97969.34;6107316;19;20086;-70
2024/03/12 03:41:15;;;;;;;11.13;6.50;;;;;;;-1.13;100.00;97968.75;6104664;19;20003;-70
2024/03/12 03:43:15;;;;;;;10.80;6.40;;;;;;;-1.07;100.00;97968.63;6104262;19;20351;-70
2024/03/12 03:45:16;;;;;;;11.38;6.35;;;;;;;-1.14;100.00;97974.50;6107208;19;20002;-70
2024/03/12 03:47:16;;;;;;;12.18;7.57;;;;;;;-1.10;100.00;97966.53;6106220;19;20044;-70
2024/03/12 03:49:16;;;;;;;15.68;6.53;;;;;;;-1.05;100.00;97978.06;6106939;19;20559;-70
2024/03/12 03:51:17;;;;;;;11.20;6.45;;;;;;;-0.98;100.00;97975.69;6106843;19;20070;-70
2024/03/12 03:53:17;;;;;;;7.72;5.78;;;;;;;-1.00;100.00;97972.47;6105064;19;20003;-70
2024/03/12 03:55:21;;;;;;;11.52;6.97;;;;;;;-1.03;100.00;97970.38;6106680;19;20011;-70
2024/03/12 03:57:22;;;;;;;11.90;7.07;;;;;;;-1.14;100.00;97972.59;6107233;19;20009;-70
2024/03/12 03:59:23;;;;;;;11.30;6.60;;;;;;;-1.16;100.00;97979.44;6106228;19;20394;-70
2024/03/12 04:01:24;;;;;;;12.32;6.60;;;;;;;-1.17;100.00;97986.78;6104838;19;20003;-70
2024/03/12 04:03:25;;;;;;;13.93;6.53;;;;;;;-1.29;100.00;97983.88;6106618;19;20341;-70
2024/03/12 04:05:25;;;;;;;10.95;6.38;;;;;;;-1.27;100.00;97980.84;6106951;19;20007;-70
2024/03/12 04:07:25;;;;;;;8.63;5.50;;;;;;;-1.29;100.00;97985.78;6106764;19;20121;-70
2024/03/12 04:09:26;;;;;;;10.43;5.43;;;;;;;-1.26;100.00;97991.38;6105346;19;20002;-70
2024/03/12 04:11:26;;;;;;;8.93;5.85;;;;;;;-1.21;100.00;97990.44;6104630;19;20003;-70
2024/03/12 04:13:26;;;;;;;7.47;4.90;;;;;;;-1.22;100.00;97988.84;6109010;19;20027;-70
2024/03/12 04:15:28;;;;;;;8.57;5.72;;;;;;;-1.25;100.00;97997.59;6102905;19;20003;-70
2024/03/12 04:17:28;;;;;;;9.32;5.40;;;;;;;-1.24;100.00;97999.19;6103107;19;20020;-70
2024/03/12 04:19:32;;;;;;;7.93;5.35;;;;;;;-1.22;100.00;97999.72;6103637;19;20003;-70
2024/03/12 04:21:32;;;;;;;10.38;6.13;;;;;;;-1.25;100.00;98008.44;6103011;19;20351;-70
2024/03/12 04:23:32;;;;;;;9.43;5.00;;;;;;;-1.32;100.00;98002.69;6104147;19;20010;-70
2024/03/12 04:25:33;;;;;;;10.10;5.65;;;;;;;-1.28;100.00;97998.22;6103508;19;20030;-70
2024/03/12 04:27:36;;;;;;;9.00;5.30;;;;;;;-1.29;100.00;98002.06;6104042;19;20006;-70
2024/03/12 04:29:38;;;;;;;7.65;5.28;;;;;;;-1.26;100.00;98001.44;6104514;19;20350;-70
2024/03/12 04:31:39;;;;;;;9.68;5.70;;;;;;;-1.29;100.00;98005.56;6102574;19;20056;-70
2024/03/12 04:33:40;;;;;;;8.20;5.05;;;;;;;-1.26;100.00;98004.94;6103694;19;20363;-70
2024/03/12 04:35:40;;;;;;;8.38;4.85;;;;;;;-1.29;100.00;98010.22;6103715;19;20402;-70
2024/03/12 04:37:41;;;;;;;9.15;5.30;;;;;;;-1.36;100.00;98009.84;6102526;19;20016;-70
2024/03/12 04:39:41;;;;;;;10.27;5.53;;;;;;;-1.46;100.00;98008.19;6104146;19;20470;-70
2024/03/12 04:41:42;;;;;;;18.08;6.22;;;;;;;-1.46;100.00;98011.72;6103422;19;20062;-70
2024/03/12 04:43:42;;;;;;;9.98;6.35;;;;;;;-1.48;100.00;98015.84;6103438;19;20003;-70
2024/03/12 04:45:42;;;;;;;11.80;6.75;;;;;;;-1.53;100.00;98008.63;6102019;19;20005;-70
2024/03/12 04:47:43;;;;;;;9.80;5.47;;;;;;;-1.48;100.00;98018.56;6104110;19;20251;-70
2024/03/12 04:49:43;;;;;;;10.80;5.70;;;;;;;-1.42;100.00;98009.97;6103651;19;20003;-70
2024/03/12 04:51:44;;;;;;;9.25;5.32;;;;;;;-1.42;100.00;98018.09;6102303;19;20042;-70
2024/03/12 04:53:44;;;;;;;12.30;6.50;;;;;;;-1.43;100.00;98027.38;6102107;19;20002;-70
2024/03/12 04:55:45;;;;;;;9.93;6.18;;;;;;;-1.42;100.00;98026.25;6102121;19;20025;-70
2024/03/12 04:57:46;;;;;;;11.20;5.88;;;;;;;-1.39;100.00;98034.91;6102072;19;20421;-70
2024/03/12 04:59:47;;;;;;;14.88;6.60;;;;;;;-1.44;100.00;98027.69;6102063;19;20009;-70
2024/03/12 05:01:49;;;;;;;8.82;6.35;;;;;;;-1.45;100.00;98039.66;6101569;19;20227;-70
2024/03/12 05:03:49;;;;;;;12.75;7.28;;;;;;;-1.38;100.00;98033.78;6102402;19;20019;-70
2024/03/12 05:05:49;;;;;;;16.80;6.28;;;;;;;-1.43;100.00;98032.00;6096652;19;19999;-70
2024/03/12 05:07:50;;;;;;;10.82;6.55;;;;;;;-1.37;100.00;98043.53;6099981;19;20078;-70
2024/03/12 05:09:52;;;;;;;14.10;6.82;;;;;;;-1.39;100.00;98049.28;6101884;19;20092;-70
2024/03/12 05:11:53;;;;;;;17.70;7.40;;;;;;;-1.38;100.00;98041.94;6101705;19;20314;-70
2024/03/12 05:13:53;;;;;;;12.35;6.57;;;;;;;-1.34;100.00;98048.31;6101991;19;20050;-70
2024/03/12 05:15:53;;;;;;;9.85;6.50;;;;;;;-1.31;100.00;98050.44;6110882;19;20781;-70
2024/03/12 05:17:54;;;;;;;9.80;6.05;;;;;;;-1.33;100.00;98048.00;6109910;19;20015;-70
2024/03/12 05:19:55;;;;;;;12.25;5.70;;;;;;;-1.27;100.00;98041.34;6109874;19;20010;-70
2024/03/12 05:21:56;;;;;;;8.97;5.67;;;;;;;-1.24;100.00;98056.19;6107219;19;20006;-70
2024/03/12 05:23:56;;;;;;;7.60;5.03;;;;;;;-1.25;100.00;98049.97;6111090;19;20050;-70
2024/03/12 05:25:58;;;;;;;9.48;5.20;;;;;;;-1.22;100.00;98051.28;6110502;19;20029;-70
2024/03/12 05:28:02;;;;;;;15.13;6.20;;;;;;;-1.18;100.00;98052.25;6110846;19;20843;-70
2024/03/12 05:30:10;;;;;;;10.38;5.35;;;;;;;-1.13;100.00;98057.56;6108537;19;20501;-71
2024/03/12 05:32:21;;;;;;;11.40;6.10;;;;;;;-1.14;100.00;98059.47;6108954;19;20003;-70
2024/03/12 05:34:29;;;;;;;12.23;5.90;;;;;;;-1.07;100.00;98059.03;6109799;19;20022;-70
2024/03/12 05:36:30;;;;;;;9.73;5.78;;;;;;;-1.06;100.00;98065.25;6109846;19;20021;-70
2024/03/12 05:38:33;;;;;;;12.07;6.45;;;;;;;-1.04;100.00;98057.59;6110774;19;20007;-70
2024/03/12 05:40:42;;;;;;;11.93;6.07;;;;;;;-1.00;100.00;98066.72;6110153;19;20010;-70
2024/03/12 05:49:46;;;;;;;12.40;7.22;;;;;;;-0.86;100.00;98061.97;6109145;19;20013;-70
2024/03/12 05:51:47;;;;;;;13.13;7.72;;;;;;;-0.79;100.00;98066.97;6105543;19;20375;-70
2024/03/12 05:53:48;;;;;;;13.20;8.00;;;;;;;-0.77;100.00;98068.25;6105613;19;20012;-71
2024/03/12 05:55:48;;;;;;;14.65;7.43;;;;;;;-0.72;100.00;98075.47;6107828;19;20018;-70
2024/03/12 05:57:49;;;;;;;14.20;7.38;;;;;;;-0.69;100.00;98081.06;6109333;19;20476;-70
2024/03/12 05:59:49;;;;;;;12.43;7.22;;;;;;;-0.70;100.00;98079.47;6109101;19;20328;-71
2024/03/12 06:01:51;;;;;;;10.75;6.03;;;;;;;-0.65;100.00;98087.50;6108049;19;20463;-70
2024/03/12 06:03:51;;;;;;;12.85;6.68;;;;;;;-0.60;100.00;98086.53;6110597;19;20467;-71
2024/03/12 06:05:52;;;;;;;10.30;6.18;;;;;;;-0.57;100.00;98091.34;6110974;19;20030;-71
2024/03/12 06:07:52;;;;;;;10.68;6.07;;;;;;;-0.52;100.00;98098.53;6109749;19;20006;-70
2024/03/12 06:09:53;;;;;;;13.43;6.38;;;;;;;-0.47;100.00;98101.13;6110213;19;20006;-70
2024/03/12 06:11:54;;;;;;;10.63;6.55;;;;;;;-0.46;100.00;98105.44;6108893;19;20471;-70
2024/03/12 06:13:54;;;;;;;11.13;6.40;;;;;;;-0.43;100.00;98099.38;6110044;19;20659;-70
2024/03/12 06:15:55;;;;;;;11.43;6.22;;;;;;;-0.41;100.00;98110.75;6109470;19;20471;-71
2024/03/12 06:17:55;;;;;;;13.30;6.63;;;;;;;-0.40;100.00;98110.44;6109611;19;20006;-71
2024/03/12 06:19:55;;;;;;;13.40;7.88;;;;;;;-0.35;100.00;98109.47;6109762;19;20459;-71
2024/03/12 06:21:56;;;;;;;17.58;9.27;;;;;;;-0.31;100.00;98115.91;6109006;19;20002;-71
2024/03/12 06:23:56;;;;;;;18.30;9.38;;;;;;;-0.26;100.00;98109.50;6110317;19;20059;-71
2024/03/12 06:25:57;;;;;;;20.02;11.75;;;;;;;-0.17;100.00;98116.56;6110344;19;20002;-71
2024/03/12 06:28:05;;;;;;;18.40;11.77;;;;;;;-0.11;100.00;98115.28;6109197;19;19999;-71
2024/03/12 06:30:06;;;;;;;20.13;13.32;;;;;;;-0.04;100.00;98123.78;6108320;19;20309;-70
2024/03/12 06:32:06;;;;;;;22.73;10.88;;;;;;;0.01;100.00;98109.25;6105191;19;20011;-71
2024/03/12 06:34:07;;;;;;;15.93;9.20;;;;;;;0.07;100.00;98118.03;6104776;19;20477;-70
2024/03/12 06:36:07;;;;;;;18.17;9.30;;;;;;;0.10;100.00;98128.31;6106341;19;20011;-70
2024/03/12 06:38:08;;;;;;;14.98;9.23;;;;;;;0.15;100.00;98125.41;6106026;19;20003;-71
2024/03/12 06:40:09;;;;;;;17.55;9.20;;;;;;;0.22;100.00;98123.03;6105958;19;20530;-71
2024/03/12 06:42:12;;;;;;;14.50;8.68;;;;;;;0.27;100.00;98137.28;6104372;19;20011;-71
2024/03/12 06:44:15;;;;;;;12.15;6.60;;;;;;;0.31;100.00;98129.28;6106356;19;20752;-71
2024/03/12 06:46:19;;;;;;;10.82;7.07;;;;;;;0.36;100.00;98136.50;6106172;19;19998;-71
2024/03/12 06:48:20;;;;;;;12.60;7.07;;;;;;;0.37;100.00;98140.81;6105971;19;20097;-70
2024/03/12 06:50:20;;;;;;;10.52;6.88;;;;;;;0.38;100.00;98145.13;6107496;19;20355;-70
2024/03/12 06:52:22;;;;;;;12.45;7.22;;;;;;;0.40;100.00;98148.31;6107828;19;20356;-70
2024/03/12 06:54:26;;;;;;;10.68;6.63;;;;;;;0.43;100.00;98145.78;6109871;19;20014;-70
2024/03/12 06:56:28;;;;;;;10.30;7.38;;;;;;;0.48;100.00;98144.81;6108629;19;20038;-70
2024/03/12 06:58:29;;;;;;;10.60;6.97;;;;;;;0.54;100.00;98140.81;6109501;19;20086;-70
2024/03/12 07:00:36;;;;;;;16.17;6.15;;;;;;;0.57;100.00;98149.13;6109635;19;20027;-70
2024/03/12 07:02:38;;;;;;;8.80;6.20;;;;;;;0.64;100.00;98140.47;6107877;19;20010;-71
2024/03/12 07:04:47;;;;;;;7.90;5.45;;;;;;;0.72;100.00;98144.31;6108631;19;20021;-70
2024/03/12 07:06:47;;;;;;;12.75;5.57;;;;;;;0.79;100.00;98150.91;6109692;19;20006;-70
2024/03/12 07:08:50;;;;;;;9.90;6.18;;;;;;;0.87;100.00;98152.00;6110265;19;20010;-70
2024/03/12 07:10:51;;;;;;;6.93;5.25;;;;;;;0.91;100.00;98150.25;6109396;19;20374;-70
2024/03/12 07:12:51;;;;;;;8.95;5.90;;;;;;;0.98;100.00;98157.91;6108163;19;20217;-70
2024/03/12 07:14:54;;;;;;;11.45;6.45;;;;;;;1.04;100.00;98160.16;6109246;19;20337;-71
2024/03/12 07:16:55;;;;;;;8.40;5.85;;;;;;;1.07;100.00;98156.78;6109263;19;20010;-70
2024/03/12 07:18:55;;;;;;;8.05;5.72;;;;;;;1.14;100.00;98153.56;6109320;19;20011;-70
2024/03/12 07:20:56;;;;;;;7.93;5.45;;;;;;;1.22;100.00;98160.13;6109380;19;20014;-70
2024/03/12 07:22:59;;;;;;;6.63;4.85;;;;;;;1.26;100.00;98150.97;6106943;19;20021;-70
2024/03/12 07:24:59;;;;;;;7.70;4.88;;;;;;;1.31;100.00;98150.00;6108423;19;20344;-70
2024/03/12 07:27:00;;;;;;;7.45;5.05;;;;;;;1.38;100.00;98156.53;6109219;19;20066;-70
2024/03/12 07:29:06;;;;;;;8.68;5.80;;;;;;;1.44;100.00;98167.28;6109575;19;20006;-70
2024/03/12 07:31:07;;;;;;;9.07;5.13;;;;;;;1.52;100.00;98161.00;6109436;19;20371;-70
2024/03/12 07:33:07;;;;;;;8.05;5.97;;;;;;;1.60;100.00;98155.53;6107344;19;19998;-70
2024/03/12 07:35:07;;;;;;;12.18;6.55;;;;;;;1.65;100.00;98151.78;6108560;19;20476;-70
2024/03/12 07:37:07;;;;;;;14.02;6.65;;;;;;;1.73;100.00;98150.16;6108929;19;20482;-70
2024/03/12 07:39:24;;;;;;;13.65;7.07;;;;;;;1.78;100.00;98158.97;6108299;19;20012;-70
2024/03/12 07:41:25;;;;;;;10.43;6.55;;;;;;;1.79;100.00;98162.50;6107867;19;20009;-70
2024/03/12 07:43:29;;;;;;;10.77;5.95;;;;;;;1.86;100.00;98168.25;6107170;19;20006;-70
2024/03/12 07:45:30;;;;;;;10.32;6.05;;;;;;;1.91;100.00;98166.13;6106640;19;20006;-70
2024/03/12 07:47:34;;;;;;;12.57;5.95;;;;;;;1.96;100.00;98167.88;6108108;19;20368;-70
2024/03/12 07:49:38;;;;;;;7.00;4.93;;;;;;;2.04;100.00;98175.19;6106791;19;20006;-70
2024/03/12 07:51:39;;;;;;;8.07;5.40;;;;;;;2.11;100.00;98167.31;6106702;19;20007;-70
2024/03/12 07:53:40;;;;;;;10.80;5.35;;;;;;;2.24;100.00;98166.28;6107117;19;20492;-70
2024/03/12 07:55:43;;;;;;;9.32;5.93;;;;;;;2.34;100.00;98161.56;6107645;19;20005;-70
2024/03/12 07:57:43;;;;;;;9.15;5.95;;;;;;;2.47;100.00;98168.66;6108187;19;20332;-70
2024/03/12 07:59:43;;;;;;;12.55;5.43;;;;;;;2.54;100.00;98166.22;6107280;19;20228;-70
2024/03/12 08:01:44;;;;;;;8.40;5.20;;;;;;;2.66;100.00;98166.28;6106353;19;20003;-70
2024/03/12 08:03:45;;;;;;;9.48;6.15;;;;;;;2.80;100.00;98166.00;6108269;19;20006;-70
2024/03/12 08:05:45;;;;;;;8.40;5.95;;;;;;;2.88;100.00;98161.59;6107114;19;20022;-70
2024/03/12 08:07:46;;;;;;;9.30;6.28;;;;;;;3.06;100.00;98160.31;6108322;19;20470;-70
2024/03/12 08:09:49;;;;;;;11.68;6.38;;;;;;;3.18;100.00;98163.09;6106883;19;19999;-70
2024/03/12 08:11:49;;;;;;;8.88;5.90;;;;;;;3.31;100.00;98167.47;6105344;19;20007;-70
2024/03/12 08:13:50;;;;;;;11.13;7.05;;;;;;;3.46;100.00;98176.94;6097640;19;20002;-70
2024/03/12 08:15:50;;;;;;;12.10;6.82;;;;;;;3.58;100.00;98173.47;6107358;19;20011;-70
2024/03/12 08:17:50;;;;;;;16.42;7.97;;;;;;;3.73;100.00;98170.06;6107010;19;20442;-70
2024/03/12 08:19:50;;;;;;;11.55;7.43;;;;;;;3.87;100.00;98165.03;6107128;19;20030;-70
2024/03/12 08:21:52;;;;;;;11.38;7.53;;;;;;;4.02;100.00;98168.25;6105508;19;20125;-70
2024/03/12 08:23:52;;;;;;;10.40;6.68;;;;;;;4.15;100.00;98172.59;6106485;19;20019;-70
2024/03/12 08:25:52;;;;;;;12.90;7.18;;;;;;;4.31;100.00;98173.50;6106857;19;20007;-71
2024/03/12 08:27:53;;;;;;;13.38;7.93;;;;;;;4.53;100.00;98180.41;6108040;19;20530;-70
2024/03/12 08:29:57;;;;;;;13.95;7.97;;;;;;;4.79;100.00;98180.00;6107117;19;20011;-70
2024/03/12 08:31:58;;;;;;;12.30;7.32;;;;;;;5.10;100.00;98190.28;6105671;19;20006;-70
2024/03/12 08:33:58;;;;;;;10.63;6.63;;;;;;;5.34;100.00;98181.16;6105136;19;20537;-70
2024/03/12 08:35:58;;;;;;;10.52;6.90;;;;;;;5.59;100.00;98174.38;6107096;19;20002;-70
2024/03/12 08:37:59;;;;;;;10.23;6.95;;;;;;;5.84;100.00;98187.97;6106183;19;20003;-70
2024/03/12 08:40:00;;;;;;;8.93;6.03;;;;;;;6.02;100.00;98183.72;6107116;19;20007;-70
2024/03/12 08:42:01;;;;;;;11.00;6.18;;;;;;;6.09;100.00;98183.13;6102931;19;20286;-70
2024/03/12 08:44:01;;;;;;;11.57;5.97;;;;;;;6.26;100.00;98187.44;6106676;19;20017;-70
2024/03/12 08:46:03;;;;;;;11.10;6.43;;;;;;;6.39;100.00;98187.00;6106583;19;20007;-70
2024/03/12 08:48:03;;;;;;;8.40;5.70;;;;;;;6.53;100.00;98188.44;6105968;19;20011;-70
2024/03/12 08:50:05;;;;;;;8.75;5.72;;;;;;;6.53;100.00;98185.69;6106907;19;20031;-70
2024/03/12 08:52:05;;;;;;;11.73;5.80;;;;;;;6.66;100.00;98198.97;6103874;19;20003;-70
2024/03/12 08:54:06;;;;;;;10.43;6.20;;;;;;;6.73;100.00;98196.38;6105381;19;20428;-70
2024/03/12 08:56:06;;;;;;;13.20;5.63;;;;;;;6.74;100.00;98186.97;6106658;19;20003;-70
2024/03/12 08:58:07;;;;;;;10.52;6.60;;;;;;;6.87;100.00;98200.59;6108624;19;20002;-71
2024/03/12 09:00:11;;;;;;;13.07;5.93;;;;;;;6.88;100.00;98197.50;6111550;19;20013;-71
2024/03/12 09:02:11;;;;;;;11.73;6.30;;;;;;;6.87;100.00;98195.91;6109613;19;20491;-71
2024/03/12 09:04:12;;;;;;;9.48;5.80;;;;;;;6.87;100.00;98197.84;6111776;19;19990;-71
2024/03/12 09:06:13;;;;;;;10.18;6.30;;;;;;;6.94;100.00;98198.00;6111821;19;20028;-71
2024/03/12 09:08:14;;;;;;;10.88;6.10;;;;;;;7.03;100.00;98204.06;6111666;19;19991;-71
2024/03/12 09:10:15;;;;;;;9.57;6.10;;;;;;;7.09;100.00;98193.59;6110834;19;19995;-71
2024/03/12 09:12:15;;;;;;;9.10;5.60;;;;;;;7.18;100.00;98199.66;6111095;19;19994;-71
2024/03/12 09:14:15;;;;;;;9.95;7.10;;;;;;;7.24;100.00;98195.47;6106459;19;19995;-71
2024/03/12 09:16:16;;;;;;;9.35;6.38;;;;;;;7.20;100.00;98200.94;6102503;19;19994;-71
2024/03/12 09:18:19;;;;;;;8.45;5.72;;;;;;;7.24;100.00;98196.28;6104516;19;20343;-71
2024/03/12 09:20:21;;;;;;;10.40;7.15;;;;;;;7.30;100.00;98200.34;6103861;19;20379;-71
2024/03/12 09:22:22;;;;;;;9.77;6.53;;;;;;;7.34;100.00;98205.91;6100946;19;20337;-71
2024/03/12 09:24:22;;;;;;;10.07;6.57;;;;;;;7.44;100.00;98213.56;6103578;19;20034;-71
2024/03/12 09:26:23;;;;;;;12.52;7.15;;;;;;;7.54;100.00;98210.25;6103835;19;20304;-71
2024/03/12 09:28:23;;;;;;;10.90;7.22;;;;;;;7.58;100.00;98215.81;6103139;19;20255;-71
2024/03/12 09:30:24;;;;;;;10.90;7.13;;;;;;;7.63;100.00;98201.75;6103070;19;20006;-71
2024/03/12 09:32:24;;;;;;;12.32;7.82;;;;;;;7.70;100.00;98214.84;6101748;19;20011;-71